Time;durP1;ratioP1;P1;durP2;ratioP2;P2;SDS_P1;SDS_P2;PMS_P1;PMS_P2;Temp;Humidity;BMP_temperature;BMP_pressure;BME280_temperature;BME280_humidity;BME280_pressure;Samples;Min_cycle;Max_cycle;Signal;HPM_P1;HPM_P2
2022/06/29 00:00:20;;;;;;;7.43;2.35;;;15.00;85.30;;;;;;5048415;28;20368;-71
2022/06/29 00:02:46;;;;;;;3.63;2.50;;;15.00;85.80;;;;;;5057352;28;20073;-71
2022/06/29 00:05:14;;;;;;;7.07;3.03;;;15.00;85.60;;;;;;5045486;28;20057;-71
2022/06/29 00:07:41;;;;;;;3.35;2.47;;;14.90;85.80;;;;;;5044161;28;20079;-71
2022/06/29 00:10:08;;;;;;;5.85;2.72;;;15.00;86.10;;;;;;5047838;28;20044;-71
2022/06/29 00:12:34;;;;;;;4.50;2.40;;;14.90;85.60;;;;;;5047837;28;20130;-71
2022/06/29 00:15:02;;;;;;;4.05;2.90;;;14.90;85.50;;;;;;5047296;28;20628;-71
2022/06/29 00:17:29;;;;;;;8.48;2.70;;;15.00;85.70;;;;;;5048651;28;20032;-71
2022/06/29 00:19:55;;;;;;;4.63;2.60;;;14.90;85.60;;;;;;5044315;28;20426;-71
2022/06/29 00:22:20;;;;;;;4.80;2.70;;;15.00;85.70;;;;;;5055681;28;20103;-71
2022/06/29 00:24:46;;;;;;;4.07;2.33;;;14.90;85.80;;;;;;5040653;28;20045;-71
2022/06/29 00:27:11;;;;;;;4.00;2.63;;;15.00;86.00;;;;;;5045768;28;20026;-71
2022/06/29 00:29:37;;;;;;;4.70;2.67;;;14.90;85.70;;;;;;5043720;28;20138;-71
2022/06/29 00:32:04;;;;;;;4.47;2.97;;;15.00;85.80;;;;;;5051905;28;20448;-71
2022/06/29 00:34:30;;;;;;;3.92;2.28;;;15.00;85.60;;;;;;5045090;28;20399;-71
2022/06/29 00:36:55;;;;;;;3.70;2.55;;;15.00;85.40;;;;;;5045148;28;20037;-71
2022/06/29 00:39:21;;;;;;;5.30;2.47;;;15.00;85.60;;;;;;5045701;28;20065;-71
2022/06/29 00:41:46;;;;;;;3.40;2.53;;;15.00;85.60;;;;;;5053998;28;20087;-71
2022/06/29 00:44:17;;;;;;;3.35;2.58;;;14.90;85.90;;;;;;5045892;28;20397;-71
2022/06/29 00:46:57;;;;;;;5.17;2.30;;;15.00;85.80;;;;;;5044385;28;20114;-71
2022/06/29 00:49:24;;;;;;;5.80;2.50;;;14.90;85.80;;;;;;5046515;28;20299;-71
2022/06/29 00:52:05;;;;;;;5.95;2.70;;;14.80;86.00;;;;;;5053624;28;20025;-71
2022/06/29 00:54:39;;;;;;;6.15;2.33;;;14.80;86.30;;;;;;5037169;28;20487;-71
2022/06/29 00:57:16;;;;;;;3.30;2.20;;;14.80;86.00;;;;;;5049548;28;20483;-71
2022/06/29 00:59:50;;;;;;;4.47;2.35;;;14.90;86.00;;;;;;5043820;28;20036;-71
2022/06/29 01:02:19;;;;;;;4.82;2.33;;;14.90;86.10;;;;;;5049917;28;20554;-71
2022/06/29 01:04:46;;;;;;;4.20;2.38;;;15.00;85.50;;;;;;5047958;28;20033;-71
2022/06/29 01:07:17;;;;;;;4.38;2.63;;;15.00;85.40;;;;;;5045620;28;20029;-71
2022/06/29 01:09:43;;;;;;;3.97;2.42;;;15.00;85.80;;;;;;5047972;28;20033;-71
2022/06/29 01:12:10;;;;;;;3.90;2.35;;;15.00;85.90;;;;;;5045535;28;20040;-71
2022/06/29 01:14:35;;;;;;;3.75;2.22;;;14.90;85.90;;;;;;5046099;28;20044;-71
2022/06/29 01:17:01;;;;;;;3.90;2.50;;;14.90;86.10;;;;;;5051625;28;20140;-71
2022/06/29 01:19:27;;;;;;;3.17;2.22;;;14.90;86.10;;;;;;5047150;28;20065;-71
2022/06/29 01:21:55;;;;;;;4.68;2.60;;;14.90;85.80;;;;;;5060991;28;20168;-71
2022/06/29 01:24:21;;;;;;;3.28;2.20;;;14.90;86.00;;;;;;5046304;28;20395;-71
2022/06/29 01:26:47;;;;;;;4.50;2.80;;;14.80;86.00;;;;;;5049754;28;20592;-71
2022/06/29 01:29:15;;;;;;;3.15;2.35;;;14.80;86.20;;;;;;5048248;28;20033;-71
2022/06/29 01:31:40;;;;;;;3.53;2.28;;;14.80;86.20;;;;;;5053399;28;20194;-71
2022/06/29 01:34:06;;;;;;;4.18;2.47;;;14.70;86.30;;;;;;5048134;28;20127;-71
2022/06/29 01:36:32;;;;;;;6.00;2.50;;;14.60;86.60;;;;;;5049806;28;20407;-71
2022/06/29 01:38:57;;;;;;;6.15;2.47;;;14.60;86.50;;;;;;5049611;28;20052;-71
2022/06/29 01:41:23;;;;;;;3.78;2.20;;;14.60;87.00;;;;;;5052085;28;20132;-71
2022/06/29 01:43:48;;;;;;;3.05;2.30;;;14.50;87.00;;;;;;5048798;28;20495;-71
2022/06/29 01:46:14;;;;;;;2.53;2.20;;;14.50;87.20;;;;;;5050291;28;20048;-71
2022/06/29 01:48:39;;;;;;;5.40;2.75;;;14.50;87.50;;;;;;5041434;28;20430;-71
2022/06/29 01:51:05;;;;;;;4.18;2.38;;;14.50;87.40;;;;;;5043773;28;20052;-71
2022/06/29 01:53:30;;;;;;;3.58;2.50;;;14.50;87.20;;;;;;5046229;28;20123;-70
2022/06/29 01:55:56;;;;;;;5.38;2.38;;;14.50;87.40;;;;;;5045626;28;20025;-71
2022/06/29 01:58:21;;;;;;;4.68;2.70;;;14.50;87.20;;;;;;5045466;28;20550;-71
2022/06/29 02:00:47;;;;;;;4.20;2.10;;;14.50;87.50;;;;;;5055921;28;20043;-71
2022/06/29 02:03:12;;;;;;;5.45;2.63;;;14.50;87.10;;;;;;5051420;28;20068;-71
2022/06/29 02:05:38;;;;;;;3.47;2.40;;;14.60;87.30;;;;;;5042946;28;20036;-71
2022/06/29 02:08:04;;;;;;;3.25;2.30;;;14.50;87.30;;;;;;5048455;28;20444;-71
2022/06/29 02:10:30;;;;;;;6.40;2.60;;;14.50;87.70;;;;;;5052100;28;20037;-71
2022/06/29 02:12:55;;;;;;;4.35;2.55;;;14.50;87.80;;;;;;5048124;28;20029;-71
2022/06/29 02:15:23;;;;;;;4.97;2.40;;;14.50;87.70;;;;;;5044452;28;20490;-71
2022/06/29 02:17:49;;;;;;;5.25;2.80;;;14.40;87.70;;;;;;5048674;28;20087;-71
2022/06/29 02:20:15;;;;;;;5.22;2.63;;;14.40;87.90;;;;;;5047577;28;20044;-71
2022/06/29 02:22:40;;;;;;;6.97;2.80;;;14.40;88.00;;;;;;5046018;28;20440;-71
2022/06/29 02:25:07;;;;;;;3.78;2.20;;;14.30;87.80;;;;;;5046388;28;20084;-70
2022/06/29 02:27:32;;;;;;;7.05;2.70;;;14.40;88.10;;;;;;5049313;28;20033;-71
2022/06/29 02:29:58;;;;;;;3.75;2.50;;;14.30;88.10;;;;;;5048969;28;20086;-71
2022/06/29 02:35:07;;;;;;;4.75;2.95;;;14.40;88.10;;;;;;5042955;28;20116;-71
2022/06/29 02:37:33;;;;;;;6.13;2.70;;;14.40;88.20;;;;;;5047572;28;20124;-71
2022/06/29 02:39:58;;;;;;;6.00;2.45;;;14.30;88.40;;;;;;5048734;28;20040;-70
2022/06/29 02:42:24;;;;;;;3.95;2.78;;;14.30;88.50;;;;;;5047691;28;20029;-70
2022/06/29 02:44:50;;;;;;;4.82;2.63;;;14.40;88.60;;;;;;5038259;28;20037;-71
2022/06/29 02:47:17;;;;;;;4.05;2.53;;;14.40;88.60;;;;;;5056913;28;20079;-70
2022/06/29 02:49:43;;;;;;;4.40;2.60;;;14.30;88.50;;;;;;5039757;28;20041;-71
2022/06/29 02:52:09;;;;;;;5.18;3.13;;;14.40;88.50;;;;;;5056240;28;20021;-70
2022/06/29 02:54:35;;;;;;;4.55;2.85;;;14.50;88.50;;;;;;5046266;28;20099;-71
2022/06/29 02:57:01;;;;;;;3.13;2.50;;;14.40;88.30;;;;;;5046749;28;20033;-70
2022/06/29 02:59:26;;;;;;;3.58;2.47;;;14.40;88.40;;;;;;5046157;28;20094;-71
2022/06/29 03:01:52;;;;;;;7.82;2.38;;;14.40;88.40;;;;;;5055921;28;20484;-70
2022/06/29 03:04:18;;;;;;;4.50;2.22;;;14.50;88.40;;;;;;5040444;28;20064;-71
2022/06/29 03:06:43;;;;;;;6.88;3.08;;;14.50;88.50;;;;;;5042383;28;20035;-71
2022/06/29 03:09:09;;;;;;;4.28;2.63;;;14.50;88.20;;;;;;5045170;28;20332;-71
2022/06/29 03:11:34;;;;;;;4.53;2.40;;;14.50;88.40;;;;;;5054264;28;20045;-71
2022/06/29 03:14:00;;;;;;;4.75;2.60;;;14.60;88.30;;;;;;5046259;28;20116;-70
2022/06/29 03:16:26;;;;;;;3.65;2.55;;;14.70;88.00;;;;;;5049310;28;20110;-71
2022/06/29 03:18:51;;;;;;;4.03;2.60;;;14.70;87.90;;;;;;5043675;28;20053;-71
2022/06/29 03:21:17;;;;;;;3.55;2.10;;;14.80;87.80;;;;;;5056688;28;20408;-71
2022/06/29 03:23:44;;;;;;;4.10;2.50;;;14.80;87.80;;;;;;5048605;28;20524;-71
2022/06/29 03:26:10;;;;;;;3.60;2.33;;;14.80;87.50;;;;;;5044831;28;20614;-71
2022/06/29 03:28:36;;;;;;;6.63;2.70;;;14.80;87.50;;;;;;5046698;28;20087;-71
2022/06/29 03:31:01;;;;;;;3.88;2.45;;;14.90;87.40;;;;;;5055003;28;20040;-71
2022/06/29 03:33:27;;;;;;;4.40;2.35;;;14.90;87.40;;;;;;5048001;28;20040;-71
2022/06/29 03:35:52;;;;;;;3.38;2.38;;;14.90;87.40;;;;;;5048155;28;20029;-70
2022/06/29 03:38:18;;;;;;;4.22;2.60;;;15.00;87.10;;;;;;5046395;28;20033;-71
2022/06/29 03:40:43;;;;;;;4.13;2.50;;;15.00;87.20;;;;;;5053966;28;20032;-71
2022/06/29 03:43:09;;;;;;;3.25;1.95;;;15.00;87.20;;;;;;5043343;28;20032;-71
2022/06/29 03:45:34;;;;;;;4.43;1.98;;;15.00;87.20;;;;;;5042270;28;20033;-70
2022/06/29 03:48:00;;;;;;;4.00;2.20;;;15.00;87.40;;;;;;5046952;28;20033;-71
2022/06/29 03:50:26;;;;;;;4.25;2.03;;;15.00;87.10;;;;;;5050276;28;20624;-71
2022/06/29 03:52:51;;;;;;;2.95;1.95;;;15.00;87.20;;;;;;5047595;28;20125;-71
2022/06/29 03:55:17;;;;;;;5.57;2.22;;;15.00;87.20;;;;;;5045378;28;20359;-71
2022/06/29 03:57:42;;;;;;;3.13;1.98;;;15.00;87.20;;;;;;5046147;28;20033;-70
2022/06/29 04:00:09;;;;;;;3.33;2.03;;;15.10;87.40;;;;;;5045554;28;20032;-71
2022/06/29 04:02:36;;;;;;;3.58;2.20;;;15.10;87.30;;;;;;5039433;28;20060;-70
2022/06/29 04:05:04;;;;;;;3.65;1.98;;;15.20;87.10;;;;;;5044540;28;20029;-71
2022/06/29 04:07:30;;;;;;;3.47;2.22;;;15.20;86.80;;;;;;5048566;28;20032;-71
2022/06/29 04:09:59;;;;;;;3.05;2.10;;;15.20;86.90;;;;;;5046160;28;20445;-70
2022/06/29 04:12:30;;;;;;;4.28;1.90;;;15.30;86.70;;;;;;5055865;28;22515;-71
2022/06/29 04:14:56;;;;;;;3.55;1.92;;;15.40;86.60;;;;;;5043717;28;20107;-71
2022/06/29 04:17:21;;;;;;;4.38;1.83;;;15.30;86.30;;;;;;5044841;28;20440;-70
2022/06/29 04:19:47;;;;;;;3.67;1.90;;;15.50;86.40;;;;;;5045753;28;20140;-71
2022/06/29 04:22:12;;;;;;;3.38;2.00;;;15.50;86.20;;;;;;5055629;28;20033;-71
2022/06/29 04:24:38;;;;;;;3.63;2.08;;;15.50;85.90;;;;;;5045745;28;20459;-71
2022/06/29 04:27:03;;;;;;;2.53;1.77;;;15.50;85.80;;;;;;5047765;28;20075;-70
2022/06/29 04:29:29;;;;;;;3.70;1.75;;;15.60;85.70;;;;;;5048487;28;20408;-69
2022/06/29 04:31:54;;;;;;;2.33;1.70;;;15.70;85.40;;;;;;5062875;28;20085;-69
2022/06/29 04:34:20;;;;;;;3.50;1.85;;;15.70;85.30;;;;;;5047878;28;20029;-69
2022/06/29 04:36:45;;;;;;;2.50;1.73;;;15.80;84.90;;;;;;5047667;28;20064;-69
2022/06/29 04:39:11;;;;;;;3.40;1.70;;;15.80;84.30;;;;;;5047197;28;20096;-69
2022/06/29 04:41:36;;;;;;;3.47;2.00;;;15.90;84.60;;;;;;5046927;28;20025;-69
2022/06/29 04:44:02;;;;;;;3.20;1.88;;;15.90;84.20;;;;;;5048353;28;20056;-69
2022/06/29 04:46:28;;;;;;;4.07;2.17;;;16.10;84.30;;;;;;5045940;28;20055;-69
2022/06/29 04:48:56;;;;;;;4.60;2.10;;;16.20;83.80;;;;;;5048180;28;20375;-69
2022/06/29 04:51:22;;;;;;;2.85;1.70;;;16.30;83.50;;;;;;5051107;28;20086;-69
2022/06/29 04:53:48;;;;;;;4.22;1.98;;;16.30;82.70;;;;;;5042386;28;20041;-69
2022/06/29 04:56:15;;;;;;;3.95;1.98;;;16.40;83.20;;;;;;5042953;28;20025;-69
2022/06/29 04:58:42;;;;;;;2.75;1.63;;;16.50;82.80;;;;;;5048606;28;20028;-69
2022/06/29 05:01:08;;;;;;;3.60;2.10;;;16.50;83.10;;;;;;5044770;28;20033;-69
2022/06/29 05:03:34;;;;;;;2.90;1.52;;;16.60;82.40;;;;;;5046137;28;20048;-69
2022/06/29 05:06:00;;;;;;;2.20;1.75;;;16.60;82.20;;;;;;5052334;28;20029;-69
2022/06/29 05:08:25;;;;;;;4.88;1.50;;;16.70;82.10;;;;;;5049616;28;20103;-69
2022/06/29 05:10:51;;;;;;;2.53;1.75;;;16.80;81.60;;;;;;5048117;28;20186;-69
2022/06/29 05:13:16;;;;;;;3.50;1.60;;;16.80;82.10;;;;;;5044890;28;20478;-69
2022/06/29 05:15:42;;;;;;;2.05;1.60;;;16.90;82.50;;;;;;5044803;28;20044;-69
2022/06/29 05:18:07;;;;;;;4.47;1.67;;;16.90;82.30;;;;;;5046155;28;20029;-69
2022/06/29 05:20:33;;;;;;;2.83;1.75;;;16.90;82.00;;;;;;5040149;28;20096;-69
2022/06/29 05:22:58;;;;;;;4.57;1.80;;;16.90;81.40;;;;;;5042776;28;20664;-69
2022/06/29 05:25:24;;;;;;;5.28;1.88;;;17.00;81.20;;;;;;5045996;28;20040;-69
2022/06/29 05:27:50;;;;;;;6.15;2.05;;;17.10;81.00;;;;;;5041488;28;20079;-69
2022/06/29 05:30:15;;;;;;;3.85;1.88;;;17.30;81.00;;;;;;5049683;28;20472;-69
2022/06/29 05:32:41;;;;;;;4.70;1.50;;;17.30;80.70;;;;;;5050561;28;20037;-69
2022/06/29 05:35:08;;;;;;;3.40;1.92;;;17.30;80.50;;;;;;5047237;28;20031;-69
2022/06/29 05:37:33;;;;;;;3.03;1.52;;;17.40;80.20;;;;;;5051119;28;20095;-69
2022/06/29 05:39:59;;;;;;;4.43;1.80;;;17.50;80.40;;;;;;5045677;28;20029;-69
2022/06/29 05:42:25;;;;;;;3.08;2.13;;;17.50;79.70;;;;;;5043636;28;20048;-69
2022/06/29 05:44:51;;;;;;;1.90;1.50;;;17.50;79.50;;;;;;5043252;28;20060;-69
2022/06/29 05:47:16;;;;;;;6.70;1.75;;;17.70;79.90;;;;;;5040877;28;20040;-69
2022/06/29 05:49:42;;;;;;;2.78;1.67;;;17.90;79.90;;;;;;5044002;28;20382;-69
2022/06/29 05:52:08;;;;;;;3.25;1.75;;;18.00;80.30;;;;;;5044151;28;20031;-69
2022/06/29 05:54:33;;;;;;;3.75;1.80;;;18.10;78.40;;;;;;5037691;28;20444;-69
2022/06/29 05:56:59;;;;;;;2.97;1.63;;;18.10;78.50;;;;;;5051253;28;20029;-69
2022/06/29 05:59:25;;;;;;;4.45;1.73;;;18.20;78.50;;;;;;5042764;28;20117;-69
2022/06/29 06:01:51;;;;;;;3.33;1.80;;;18.20;77.90;;;;;;5043175;28;20131;-69
2022/06/29 06:04:16;;;;;;;2.85;1.60;;;18.20;78.30;;;;;;5047973;28;20040;-69
2022/06/29 06:06:42;;;;;;;3.33;1.70;;;18.30;78.10;;;;;;5047060;28;20044;-69
2022/06/29 06:09:07;;;;;;;2.63;1.90;;;18.50;78.10;;;;;;5042057;28;20037;-70
2022/06/29 06:11:33;;;;;;;2.42;1.60;;;18.60;77.40;;;;;;5044491;28;20048;-70
2022/06/29 06:13:59;;;;;;;5.32;1.90;;;18.90;77.50;;;;;;5046936;28;20032;-70
2022/06/29 06:16:24;;;;;;;5.57;1.67;;;18.80;77.30;;;;;;5045708;28;20548;-69
2022/06/29 06:18:50;;;;;;;2.40;1.50;;;18.90;76.30;;;;;;5042878;28;20047;-69
2022/06/29 06:21:15;;;;;;;2.38;1.67;;;19.10;76.60;;;;;;5053759;28;20361;-70
2022/06/29 06:23:41;;;;;;;1.85;1.45;;;19.20;75.70;;;;;;5047637;28;20033;-70
2022/06/29 06:26:06;;;;;;;2.00;1.40;;;19.00;75.80;;;;;;5047999;28;20435;-70
2022/06/29 06:28:32;;;;;;;3.20;1.63;;;19.30;75.60;;;;;;5046144;28;20115;-70
2022/06/29 06:30:57;;;;;;;2.67;1.60;;;19.10;75.80;;;;;;5050012;28;20491;-70
2022/06/29 06:33:24;;;;;;;5.15;1.40;;;19.50;77.10;;;;;;5048446;28;20120;-70
2022/06/29 06:35:49;;;;;;;3.10;1.80;;;19.50;75.20;;;;;;5043132;28;20359;-70
2022/06/29 06:38:15;;;;;;;2.95;1.48;;;19.60;74.90;;;;;;5041265;28;20040;-70
2022/06/29 06:43:25;;;;;;;2.65;1.38;;;20.00;74.90;;;;;;5039554;28;20547;-70
2022/06/29 06:45:51;;;;;;;2.47;1.55;;;19.90;74.60;;;;;;5043832;28;20083;-70
2022/06/29 06:48:16;;;;;;;2.20;1.42;;;20.10;74.60;;;;;;5038112;28;20490;-70
2022/06/29 06:50:42;;;;;;;2.50;1.40;;;20.40;74.90;;;;;;5052582;28;20067;-70
2022/06/29 06:53:08;;;;;;;4.70;1.65;;;20.30;74.30;;;;;;5044113;28;20391;-70
2022/06/29 06:55:33;;;;;;;2.95;1.60;;;20.10;74.50;;;;;;5045444;28;20036;-70
2022/06/29 06:57:59;;;;;;;1.80;1.40;;;20.40;74.90;;;;;;5048260;28;20028;-70
2022/06/29 07:00:24;;;;;;;2.35;1.65;;;20.50;74.10;;;;;;5046993;28;20112;-70
2022/06/29 07:02:50;;;;;;;2.00;1.42;;;20.70;73.40;;;;;;5049584;28;20033;-70
2022/06/29 07:05:16;;;;;;;2.85;1.50;;;20.70;73.80;;;;;;5043508;28;20041;-70
2022/06/29 07:07:41;;;;;;;4.50;1.67;;;20.80;74.30;;;;;;5049814;28;20098;-70
2022/06/29 07:10:07;;;;;;;4.82;1.60;;;20.80;74.20;;;;;;5044028;28;20041;-70
2022/06/29 07:12:33;;;;;;;4.97;1.58;;;20.70;74.30;;;;;;5053046;28;20143;-70
2022/06/29 07:14:58;;;;;;;6.47;1.80;;;20.70;73.00;;;;;;5048176;28;20044;-70
2022/06/29 07:17:24;;;;;;;3.03;1.40;;;20.70;73.90;;;;;;5046315;28;20044;-70
2022/06/29 07:19:50;;;;;;;2.58;1.42;;;20.80;72.80;;;;;;5047327;28;20052;-70
2022/06/29 07:22:15;;;;;;;1.90;1.33;;;20.80;72.80;;;;;;5054623;28;20036;-70
2022/06/29 07:24:41;;;;;;;3.05;1.20;;;21.00;73.00;;;;;;5043915;28;20055;-70
2022/06/29 07:27:06;;;;;;;3.30;1.30;;;21.10;73.50;;;;;;5050847;28;20145;-70
2022/06/29 07:29:32;;;;;;;3.05;1.55;;;21.30;73.50;;;;;;5048103;28;20041;-70
2022/06/29 07:31:58;;;;;;;3.13;1.40;;;21.40;72.50;;;;;;5058136;28;20036;-70
2022/06/29 07:34:23;;;;;;;1.92;1.30;;;21.60;72.20;;;;;;5044824;28;20033;-70
2022/06/29 07:36:49;;;;;;;2.58;1.58;;;21.70;72.40;;;;;;5043175;28;20059;-70
2022/06/29 07:39:14;;;;;;;2.30;1.30;;;21.80;71.80;;;;;;5045581;28;20033;-70
2022/06/29 07:41:41;;;;;;;2.45;1.30;;;22.00;70.40;;;;;;5053404;28;20025;-71
2022/06/29 07:44:07;;;;;;;2.10;1.50;;;22.40;71.40;;;;;;5043675;28;20037;-71
2022/06/29 07:46:32;;;;;;;2.88;1.67;;;22.40;68.70;;;;;;5050217;28;20041;-70
2022/06/29 07:48:58;;;;;;;3.42;1.50;;;22.40;69.00;;;;;;5039314;28;20405;-71
2022/06/29 07:51:24;;;;;;;2.75;1.50;;;22.50;69.50;;;;;;5046738;28;20059;-70
2022/06/29 07:53:49;;;;;;;5.38;1.50;;;22.80;68.90;;;;;;5033077;28;20028;-71
2022/06/29 07:56:15;;;;;;;2.22;1.35;;;22.70;66.80;;;;;;5045729;28;20028;-71
2022/06/29 07:58:41;;;;;;;2.22;1.52;;;23.00;68.00;;;;;;5047929;28;20029;-70
2022/06/29 08:01:06;;;;;;;4.75;1.50;;;23.30;67.50;;;;;;5056026;28;20039;-71
2022/06/29 08:03:32;;;;;;;2.60;1.52;;;23.10;66.70;;;;;;5039637;28;20429;-71
2022/06/29 08:06:00;;;;;;;2.47;1.48;;;23.30;65.60;;;;;;5054305;28;20047;-71
2022/06/29 08:08:26;;;;;;;2.38;1.38;;;23.70;66.10;;;;;;5046828;28;20033;-71
2022/06/29 08:10:53;;;;;;;2.50;1.60;;;24.20;64.40;;;;;;5055411;28;20079;-71
2022/06/29 08:13:18;;;;;;;2.78;1.50;;;24.60;63.50;;;;;;5044881;28;20033;-71
2022/06/29 08:15:45;;;;;;;2.72;1.58;;;24.50;61.50;;;;;;5047454;28;20342;-71
2022/06/29 08:18:12;;;;;;;2.63;1.70;;;24.80;62.10;;;;;;5044010;28;20070;-71
2022/06/29 08:20:38;;;;;;;2.15;1.30;;;24.90;60.10;;;;;;5052948;28;20043;-71
2022/06/29 08:23:04;;;;;;;1.40;1.30;;;24.90;61.20;;;;;;5047043;28;20049;-71
2022/06/29 08:25:31;;;;;;;3.90;1.70;;;24.80;60.50;;;;;;5048083;28;20025;-71
2022/06/29 08:27:56;;;;;;;2.83;1.63;;;24.60;60.50;;;;;;5046309;28;20021;-71
2022/06/29 08:30:22;;;;;;;4.60;1.60;;;24.70;59.80;;;;;;5042977;28;20222;-71
2022/06/29 08:32:47;;;;;;;2.05;1.80;;;25.00;59.80;;;;;;5047717;28;20033;-71
2022/06/29 08:35:15;;;;;;;2.45;1.60;;;25.10;58.20;;;;;;5043467;28;20028;-71
2022/06/29 08:37:41;;;;;;;3.33;1.77;;;24.80;59.00;;;;;;5045813;28;20124;-71
2022/06/29 08:40:09;;;;;;;6.22;1.73;;;25.10;57.50;;;;;;5040144;28;20044;-70
2022/06/29 08:42:37;;;;;;;2.63;1.60;;;25.30;57.10;;;;;;5033777;28;20487;-70
2022/06/29 08:45:04;;;;;;;3.30;1.55;;;25.30;57.50;;;;;;5038781;28;20021;-70
2022/06/29 08:47:30;;;;;;;3.50;1.73;;;25.00;58.00;;;;;;5045026;28;20036;-70
2022/06/29 08:49:56;;;;;;;2.47;1.60;;;25.50;58.00;;;;;;5048747;28;20472;-70
2022/06/29 08:52:26;;;;;;;2.28;1.70;;;25.70;56.70;;;;;;5048268;28;20029;-70
2022/06/29 08:54:53;;;;;;;1.92;1.52;;;25.90;55.50;;;;;;5045714;28;20041;-70
2022/06/29 08:57:20;;;;;;;2.13;1.50;;;25.30;56.60;;;;;;5048331;28;20091;-70
2022/06/29 08:59:46;;;;;;;2.47;1.50;;;25.90;56.60;;;;;;5048128;28;20033;-70
2022/06/29 09:02:13;;;;;;;1.88;1.42;;;26.20;55.60;;;;;;5048254;28;20039;-70
2022/06/29 09:04:39;;;;;;;2.70;1.50;;;26.20;54.50;;;;;;5047110;28;20036;-70
2022/06/29 09:07:05;;;;;;;2.53;1.60;;;26.20;55.70;;;;;;5048120;28;20033;-70
2022/06/29 09:09:30;;;;;;;3.53;1.48;;;26.30;54.90;;;;;;5049422;28;20524;-70
2022/06/29 09:11:56;;;;;;;3.00;1.65;;;26.40;55.60;;;;;;5047287;28;20436;-70
2022/06/29 09:14:24;;;;;;;4.70;1.63;;;26.40;56.00;;;;;;5046389;28;20040;-70
2022/06/29 09:16:57;;;;;;;2.80;1.42;;;26.10;56.30;;;;;;5051200;28;20036;-70
2022/06/29 09:19:51;;;;;;;3.47;1.23;;;26.40;56.90;;;;;;5051569;28;20053;-70
2022/06/29 09:22:16;;;;;;;3.00;1.55;;;26.20;55.70;;;;;;5045542;28;20487;-70
2022/06/29 09:24:42;;;;;;;2.25;1.80;;;26.00;56.30;;;;;;5052079;28;20029;-70
2022/06/29 09:27:09;;;;;;;2.33;1.50;;;25.50;56.30;;;;;;5041992;28;20036;-70
2022/06/29 09:29:41;;;;;;;2.75;1.40;;;25.50;54.50;;;;;;5049969;28;20108;-70
2022/06/29 09:32:17;;;;;;;1.98;1.40;;;25.90;57.90;;;;;;5051534;28;20040;-70
2022/06/29 09:34:48;;;;;;;2.47;1.58;;;25.80;55.60;;;;;;5050697;28;20052;-70
2022/06/29 09:37:16;;;;;;;2.08;1.60;;;26.00;54.70;;;;;;5050386;28;20025;-70
2022/06/29 09:39:42;;;;;;;3.05;1.40;;;25.60;55.80;;;;;;5052451;28;20060;-70
2022/06/29 09:42:11;;;;;;;3.50;1.88;;;25.40;55.40;;;;;;5051077;28;20040;-70
2022/06/29 09:44:36;;;;;;;2.05;1.50;;;25.50;56.50;;;;;;5051212;28;20079;-70
2022/06/29 09:47:06;;;;;;;2.88;1.42;;;25.60;57.60;;;;;;5048552;28;20029;-70
2022/06/29 09:49:33;;;;;;;4.00;1.50;;;25.20;53.50;;;;;;5051972;28;20124;-70
2022/06/29 09:52:00;;;;;;;2.17;1.50;;;26.00;55.50;;;;;;5047827;28;20029;-70
2022/06/29 09:54:31;;;;;;;3.03;1.42;;;25.70;51.80;;;;;;5051850;28;20048;-70
2022/06/29 09:56:57;;;;;;;2.22;1.30;;;25.40;52.70;;;;;;5048021;28;20165;-70
2022/06/29 10:02:34;;;;;;;2.65;1.50;;;25.40;54.00;;;;;;5048175;28;20032;-70
2022/06/29 10:02:35;;;;;;;2.58;1.60;;;25.30;54.70;;;;;;5046750;28;20048;-70
2022/06/29 10:05:11;;;;;;;2.67;1.67;;;25.50;53.50;;;;;;5041434;28;20048;-70
2022/06/29 10:07:39;;;;;;;3.42;2.10;;;25.70;52.20;;;;;;5051489;28;20149;-70
2022/06/29 10:10:08;;;;;;;6.03;2.00;;;25.50;52.90;;;;;;5049324;28;20102;-70
2022/06/29 10:16:06;;;;;;;3.50;2.00;;;26.30;49.20;;;;;;5045031;28;20503;-70
2022/06/29 10:18:50;;;;;;;4.38;2.75;;;26.00;50.70;;;;;;5047965;28;20455;-70
2022/06/29 10:21:19;;;;;;;3.85;2.25;;;25.90;50.30;;;;;;5038674;28;20458;-70
2022/06/29 10:23:53;;;;;;;5.72;3.03;;;26.00;51.30;;;;;;5050141;28;20460;-70
2022/06/29 10:26:28;;;;;;;7.03;3.60;;;26.60;51.40;;;;;;5048581;28;20037;-70
2022/06/29 10:29:09;;;;;;;6.10;3.58;;;26.50;50.80;;;;;;5049909;28;20051;-70
2022/06/29 10:31:50;;;;;;;5.72;3.15;;;26.80;50.90;;;;;;5049711;28;20082;-70
2022/06/29 10:34:30;;;;;;;;;;;26.60;49.10;;;;;;5050124;28;20029;-70
2022/06/29 10:37:11;;;;;;;8.02;2.80;;;27.40;48.00;;;;;;5049986;28;19909;-70
2022/06/29 10:39:49;;;;;;;5.32;3.38;;;27.40;49.00;;;;;;5048559;28;20208;-70
2022/06/29 10:45:22;;;;;;;12.57;3.30;;;26.70;49.10;;;;;;5039354;28;20039;-70
2022/06/29 10:47:57;;;;;;;5.23;2.70;;;26.60;48.30;;;;;;5049203;28;20032;-70
2022/06/29 10:50:31;;;;;;;5.25;2.50;;;27.00;49.20;;;;;;5050567;28;20295;-70
2022/06/29 10:53:05;;;;;;;6.75;2.88;;;27.70;45.80;;;;;;5038746;28;20042;-70
2022/06/29 10:55:32;;;;;;;4.05;2.30;;;27.80;45.50;;;;;;5049316;28;20107;-70
2022/06/29 10:57:58;;;;;;;5.78;2.50;;;27.10;46.20;;;;;;5048687;28;20021;-70
2022/06/29 11:00:26;;;;;;;5.75;2.85;;;27.90;46.20;;;;;;5050277;28;20025;-70
2022/06/29 11:02:52;;;;;;;4.38;2.58;;;28.20;45.10;;;;;;5048000;28;20033;-70
2022/06/29 11:05:18;;;;;;;7.10;2.10;;;28.70;45.80;;;;;;5050149;28;20045;-71
2022/06/29 11:13:31;;;;;;;2.47;1.30;;;27.90;46.40;;;;;;5035616;28;20052;-70
2022/06/29 11:15:59;;;;;;;2.40;1.50;;;28.50;46.40;;;;;;5044301;28;20034;-70
2022/06/29 11:18:32;;;;;;;2.78;1.42;;;27.90;44.00;;;;;;5049386;28;20033;-70
2022/06/29 11:21:02;;;;;;;4.53;1.23;;;28.00;44.30;;;;;;5043670;28;20379;-70
2022/06/29 11:23:29;;;;;;;2.30;1.13;;;27.60;44.10;;;;;;5042012;28;20455;-70
2022/06/29 11:25:55;;;;;;;1.75;1.20;;;27.40;44.40;;;;;;5046501;28;20037;-70
2022/06/29 11:28:28;;;;;;;2.03;1.25;;;27.20;45.70;;;;;;5046441;28;20112;-70
2022/06/29 11:31:01;;;;;;;1.83;1.20;;;27.00;45.10;;;;;;5050123;28;20025;-70
2022/06/29 11:33:32;;;;;;;2.33;1.10;;;27.00;47.00;;;;;;5050126;28;20025;-70
2022/06/29 11:36:02;;;;;;;;;;;27.10;46.10;;;;;;5047323;28;20056;-70
2022/06/29 11:38:28;;;;;;;1.40;1.00;;;26.70;45.90;;;;;;5049081;28;19912;-70
2022/06/29 11:40:54;;;;;;;2.65;0.95;;;26.90;46.40;;;;;;5048944;28;20373;-70
2022/06/29 11:43:21;;;;;;;2.17;1.05;;;26.80;45.90;;;;;;5047820;28;20052;-70
2022/06/29 11:45:56;;;;;;;1.23;1.10;;;27.20;46.30;;;;;;5048732;28;20106;-70
2022/06/29 11:48:24;;;;;;;0.93;0.85;;;26.90;46.00;;;;;;5047911;28;20028;-70
2022/06/29 11:50:58;;;;;;;1.77;1.20;;;27.00;44.80;;;;;;5045579;28;20036;-70
2022/06/29 11:53:44;;;;;;;2.08;1.17;;;27.30;44.90;;;;;;5047630;28;20081;-70
2022/06/29 11:56:15;;;;;;;1.73;1.00;;;27.90;43.60;;;;;;5048052;28;20395;-70
2022/06/29 11:58:49;;;;;;;1.52;1.17;;;28.90;45.00;;;;;;5048534;28;20032;-70
2022/06/29 12:01:17;;;;;;;3.47;1.20;;;29.00;41.20;;;;;;5049731;28;20056;-70
2022/06/29 12:03:57;;;;;;;2.17;1.08;;;30.20;42.80;;;;;;5044987;28;20039;-70
2022/06/29 12:06:26;;;;;;;1.35;1.02;;;30.70;38.70;;;;;;5049784;28;20158;-71
2022/06/29 12:08:53;;;;;;;1.73;0.90;;;30.40;37.50;;;;;;5047137;28;20112;-71
2022/06/29 12:11:19;;;;;;;1.58;1.30;;;31.00;38.20;;;;;;5046367;28;20456;-71
2022/06/29 12:13:44;;;;;;;2.70;1.30;;;31.80;36.80;;;;;;5048265;28;20101;-71
2022/06/29 12:16:10;;;;;;;1.95;1.20;;;31.20;37.90;;;;;;5049037;28;20480;-71
2022/06/29 12:18:36;;;;;;;3.08;1.20;;;31.20;37.10;;;;;;5049259;28;20064;-71
2022/06/29 12:21:02;;;;;;;1.08;0.98;;;31.50;36.30;;;;;;5045574;28;20033;-71
2022/06/29 12:23:28;;;;;;;3.15;1.20;;;32.00;37.00;;;;;;5048425;28;20104;-71
2022/06/29 12:25:55;;;;;;;2.60;1.60;;;31.40;36.30;;;;;;5048360;28;20025;-71
2022/06/29 12:28:21;;;;;;;2.08;1.45;;;32.10;38.70;;;;;;5047032;28;20039;-71
2022/06/29 12:30:47;;;;;;;1.70;1.10;;;32.00;37.60;;;;;;5047522;28;20041;-71
2022/06/29 12:33:13;;;;;;;2.72;1.27;;;32.50;35.30;;;;;;5049099;28;20116;-71
2022/06/29 12:35:38;;;;;;;2.90;1.20;;;32.60;36.00;;;;;;5046412;28;20403;-71
2022/06/29 12:38:04;;;;;;;1.23;1.05;;;33.40;35.10;;;;;;5049448;28;20501;-70
2022/06/29 12:40:30;;;;;;;1.88;1.20;;;31.60;36.60;;;;;;5047082;28;20048;-71
2022/06/29 12:42:56;;;;;;;2.65;1.10;;;31.70;37.20;;;;;;5046209;28;20504;-70
2022/06/29 12:45:23;;;;;;;1.67;1.10;;;31.30;40.40;;;;;;5047814;28;20029;-70
2022/06/29 12:47:50;;;;;;;1.35;1.00;;;30.70;39.30;;;;;;5049261;28;20486;-70
2022/06/29 12:50:15;;;;;;;3.08;1.20;;;29.10;41.10;;;;;;5046360;28;20068;-70
2022/06/29 12:52:46;;;;;;;1.42;1.00;;;29.50;41.90;;;;;;5043304;28;20084;-70
2022/06/29 12:55:15;;;;;;;2.72;1.00;;;30.60;40.80;;;;;;5049416;28;20102;-70
2022/06/29 12:57:41;;;;;;;1.63;1.10;;;31.40;39.20;;;;;;5050338;28;20440;-70
2022/06/29 13:00:08;;;;;;;2.45;1.15;;;31.30;38.00;;;;;;5051630;28;20056;-70
2022/06/29 13:02:33;;;;;;;1.83;1.20;;;30.00;39.90;;;;;;5051606;28;20341;-70
2022/06/29 13:04:59;;;;;;;1.33;1.13;;;30.30;40.20;;;;;;5051555;28;20029;-70